sensor_id;sensor_type;location;lat;lon;timestamp;pressure;altitude;pressure_sealevel;temperature;humidity
37066;BME280;22981;43.080;25.550;2022-12-07T00:00:39;99721.29;;;5.20;90.66
37066;BME280;22981;43.080;25.550;2022-12-07T00:03:11;99716.99;;;5.19;90.66
37066;BME280;22981;43.080;25.550;2022-12-07T00:05:41;99722.80;;;5.19;90.68
37066;BME280;22981;43.080;25.550;2022-12-07T00:08:16;99728.43;;;5.20;90.74
37066;BME280;22981;43.080;25.550;2022-12-07T00:10:48;99728.41;;;5.24;90.76
37066;BME280;22981;43.080;25.550;2022-12-07T00:13:19;99734.22;;;5.23;90.72
37066;BME280;22981;43.080;25.550;2022-12-07T00:15:51;99737.69;;;5.24;90.70
37066;BME280;22981;43.080;25.550;2022-12-07T00:18:23;99744.17;;;5.21;90.70
37066;BME280;22981;43.080;25.550;2022-12-07T00:20:55;99744.04;;;5.19;90.79
37066;BME280;22981;43.080;25.550;2022-12-07T00:23:30;99689.22;;;4.88;90.78
37066;BME280;22981;43.080;25.550;2022-12-07T00:26:28;99738.73;;;5.19;90.86
37066;BME280;22981;43.080;25.550;2022-12-07T00:29:06;99743.03;;;5.20;90.88
37066;BME280;22981;43.080;25.550;2022-12-07T00:31:36;99746.98;;;5.24;90.91
37066;BME280;22981;43.080;25.550;2022-12-07T00:34:10;99751.09;;;5.26;90.89
37066;BME280;22981;43.080;25.550;2022-12-07T00:36:38;99746.98;;;5.24;90.82
37066;BME280;22981;43.080;25.550;2022-12-07T00:39:08;99747.30;;;5.25;90.86
37066;BME280;22981;43.080;25.550;2022-12-07T00:41:35;99755.42;;;5.27;90.82
37066;BME280;22981;43.080;25.550;2022-12-07T00:44:03;99753.40;;;5.30;90.78
37066;BME280;22981;43.080;25.550;2022-12-07T00:46:32;99756.05;;;5.30;90.75
37066;BME280;22981;43.080;25.550;2022-12-07T00:49:00;99753.23;;;5.31;90.73
37066;BME280;22981;43.080;25.550;2022-12-07T00:51:32;99738.45;;;5.33;90.70
37066;BME280;22981;43.080;25.550;2022-12-07T00:54:00;99739.27;;;5.33;90.68
37066;BME280;22981;43.080;25.550;2022-12-07T00:56:28;99736.30;;;5.32;90.65
37066;BME280;22981;43.080;25.550;2022-12-07T00:59:01;99733.45;;;5.34;90.71
37066;BME280;22981;43.080;25.550;2022-12-07T01:01:35;99734.59;;;5.35;90.70
37066;BME280;22981;43.080;25.550;2022-12-07T01:03:59;99728.66;;;5.33;90.63
37066;BME280;22981;43.080;25.550;2022-12-07T01:06:30;99729.47;;;5.34;90.73
37066;BME280;22981;43.080;25.550;2022-12-07T01:08:57;99730.61;;;5.35;90.78
37066;BME280;22981;43.080;25.550;2022-12-07T01:11:27;99731.94;;;5.35;90.80
37066;BME280;22981;43.080;25.550;2022-12-07T01:13:57;99736.58;;;5.37;90.78
37066;BME280;22981;43.080;25.550;2022-12-07T01:16:27;99727.45;;;5.40;90.77
37066;BME280;22981;43.080;25.550;2022-12-07T01:19:07;99716.32;;;5.40;90.69
37066;BME280;22981;43.080;25.550;2022-12-07T01:21:44;99715.97;;;5.39;90.73
37066;BME280;22981;43.080;25.550;2022-12-07T01:24:19;99714.17;;;5.40;90.71
37066;BME280;22981;43.080;25.550;2022-12-07T01:26:50;99719.48;;;5.40;90.72
37066;BME280;22981;43.080;25.550;2022-12-07T01:29:22;99722.45;;;5.41;90.73
37066;BME280;22981;43.080;25.550;2022-12-07T01:31:50;99721.13;;;5.41;90.79
37066;BME280;22981;43.080;25.550;2022-12-07T01:34:24;99715.50;;;5.40;90.78
37066;BME280;22981;43.080;25.550;2022-12-07T01:36:54;99714.99;;;5.40;90.79
37066;BME280;22981;43.080;25.550;2022-12-07T01:39:24;99711.33;;;5.41;90.80
37066;BME280;22981;43.080;25.550;2022-12-07T01:41:51;99707.84;;;5.41;90.80
37066;BME280;22981;43.080;25.550;2022-12-07T01:44:24;99703.20;;;5.39;90.82
37066;BME280;22981;43.080;25.550;2022-12-07T01:46:59;99699.73;;;5.38;90.89
37066;BME280;22981;43.080;25.550;2022-12-07T01:49:38;99703.08;;;5.36;90.93
37066;BME280;22981;43.080;25.550;2022-12-07T01:52:13;99702.92;;;5.34;90.94
37066;BME280;22981;43.080;25.550;2022-12-07T01:54:40;99700.62;;;5.31;91.03
37066;BME280;22981;43.080;25.550;2022-12-07T01:57:09;99694.96;;;5.34;91.12
37066;BME280;22981;43.080;25.550;2022-12-07T01:59:37;99656.20;;;5.10;91.14
37066;BME280;22981;43.080;25.550;2022-12-07T02:02:07;99689.65;;;5.34;91.14
37066;BME280;22981;43.080;25.550;2022-12-07T02:04:36;99690.16;;;5.33;91.13
37066;BME280;22981;43.080;25.550;2022-12-07T02:07:05;99697.61;;;5.34;91.17
37066;BME280;22981;43.080;25.550;2022-12-07T02:09:33;99692.50;;;5.32;91.16
37066;BME280;22981;43.080;25.550;2022-12-07T02:12:01;99696.16;;;5.31;91.17
37066;BME280;22981;43.080;25.550;2022-12-07T02:14:29;99695.15;;;5.32;91.17
37066;BME280;22981;43.080;25.550;2022-12-07T02:23:04;99690.66;;;5.33;91.11
37066;BME280;22981;43.080;25.550;2022-12-07T02:31:22;99682.51;;;5.34;90.87
37066;BME280;22981;43.080;25.550;2022-12-07T02:33:54;99679.38;;;5.31;90.86
37066;BME280;22981;43.080;25.550;2022-12-07T02:36:25;99678.25;;;5.29;90.90
37066;BME280;22981;43.080;25.550;2022-12-07T02:38:58;99683.91;;;5.26;90.88
37066;BME280;22981;43.080;25.550;2022-12-07T02:41:28;99671.64;;;5.25;90.92
37066;BME280;22981;43.080;25.550;2022-12-07T02:43:57;99666.14;;;5.26;90.95
37066;BME280;22981;43.080;25.550;2022-12-07T02:46:31;99662.67;;;5.26;90.88
37066;BME280;22981;43.080;25.550;2022-12-07T02:49:00;99666.02;;;5.24;90.84
37066;BME280;22981;43.080;25.550;2022-12-07T02:51:30;99663.18;;;5.25;90.84
37066;BME280;22981;43.080;25.550;2022-12-07T02:53:58;99672.78;;;5.26;90.81
37066;BME280;22981;43.080;25.550;2022-12-07T02:59:52;99665.55;;;5.20;90.67
37066;BME280;22981;43.080;25.550;2022-12-07T03:08:21;99661.25;;;5.19;90.82
37066;BME280;22981;43.080;25.550;2022-12-07T03:10:54;99661.25;;;5.19;90.79
37066;BME280;22981;43.080;25.550;2022-12-07T03:13:59;99650.45;;;5.21;90.78
37066;BME280;22981;43.080;25.550;2022-12-07T03:16:45;99658.25;;;5.22;90.69
37066;BME280;22981;43.080;25.550;2022-12-07T03:19:15;99621.34;;;4.94;90.66
37066;BME280;22981;43.080;25.550;2022-12-07T03:21:49;99665.39;;;5.18;90.76
37066;BME280;22981;43.080;25.550;2022-12-07T03:24:19;99662.90;;;5.20;90.80
37066;BME280;22981;43.080;25.550;2022-12-07T03:26:52;99657.08;;;5.21;90.78
37066;BME280;22981;43.080;25.550;2022-12-07T03:29:26;99653.92;;;5.21;90.79
37066;BME280;22981;43.080;25.550;2022-12-07T03:31:58;99653.92;;;5.21;90.74
37066;BME280;22981;43.080;25.550;2022-12-07T03:34:40;99662.58;;;5.19;90.81
37066;BME280;22981;43.080;25.550;2022-12-07T03:37:12;99657.08;;;5.21;90.88
37066;BME280;22981;43.080;25.550;2022-12-07T03:39:54;99655.76;;;5.21;90.89
37066;BME280;22981;43.080;25.550;2022-12-07T03:42:16;99654.58;;;5.23;90.83
37066;BME280;22981;43.080;25.550;2022-12-07T03:44:44;99652.59;;;5.21;90.84
37066;BME280;22981;43.080;25.550;2022-12-07T03:47:20;99649.63;;;5.20;90.86
37066;BME280;22981;43.080;25.550;2022-12-07T03:50:00;99648.62;;;5.21;90.93
37066;BME280;22981;43.080;25.550;2022-12-07T03:52:42;99644.13;;;5.22;90.92
37066;BME280;22981;43.080;25.550;2022-12-07T03:55:15;99645.45;;;5.22;90.85
37066;BME280;22981;43.080;25.550;2022-12-07T03:57:46;99644.32;;;5.20;90.85
37066;BME280;22981;43.080;25.550;2022-12-07T04:00:14;99641.86;;;5.19;90.82
37066;BME280;22981;43.080;25.550;2022-12-07T04:02:43;99645.49;;;5.18;90.82
37066;BME280;22981;43.080;25.550;2022-12-07T04:05:11;99646.82;;;5.18;90.85
37066;BME280;22981;43.080;25.550;2022-12-07T04:07:39;99644.52;;;5.19;90.85
37066;BME280;22981;43.080;25.550;2022-12-07T04:10:08;99639.20;;;5.19;90.86
37066;BME280;22981;43.080;25.550;2022-12-07T04:12:35;99624.80;;;5.13;90.85
37066;BME280;22981;43.080;25.550;2022-12-07T04:15:04;99625.11;;;5.18;90.86
37066;BME280;22981;43.080;25.550;2022-12-07T04:17:32;99626.44;;;5.18;90.84
37066;BME280;22981;43.080;25.550;2022-12-07T04:19:59;99631.24;;;5.19;90.89
37066;BME280;22981;43.080;25.550;2022-12-07T04:22:27;99625.59;;;5.18;90.90
37066;BME280;22981;43.080;25.550;2022-12-07T04:24:54;99620.63;;;5.19;90.97
37066;BME280;22981;43.080;25.550;2022-12-07T04:27:22;99625.42;;;5.19;90.95
37066;BME280;22981;43.080;25.550;2022-12-07T04:29:49;99628.59;;;5.19;90.97
37066;BME280;22981;43.080;25.550;2022-12-07T04:32:17;99617.15;;;5.18;90.95
37066;BME280;22981;43.080;25.550;2022-12-07T04:34:45;99621.45;;;5.19;90.96
37066;BME280;22981;43.080;25.550;2022-12-07T04:37:12;99617.97;;;5.19;90.95
37066;BME280;22981;43.080;25.550;2022-12-07T04:39:40;99620.94;;;5.20;91.00
37066;BME280;22981;43.080;25.550;2022-12-07T04:42:07;99625.23;;;5.21;90.99
37066;BME280;22981;43.080;25.550;2022-12-07T04:44:35;99612.28;;;5.22;91.01
37066;BME280;22981;43.080;25.550;2022-12-07T04:47:03;99604.31;;;5.22;90.92
37066;BME280;22981;43.080;25.550;2022-12-07T04:49:30;99602.98;;;5.22;90.89
37066;BME280;22981;43.080;25.550;2022-12-07T04:51:58;99603.84;;;5.22;90.85
37066;BME280;22981;43.080;25.550;2022-12-07T04:54:25;99612.11;;;5.23;90.83
37066;BME280;22981;43.080;25.550;2022-12-07T04:56:53;99609.63;;;5.22;90.81
37066;BME280;22981;43.080;25.550;2022-12-07T04:59:21;99608.80;;;5.21;90.83
37066;BME280;22981;43.080;25.550;2022-12-07T05:01:48;99606.97;;;5.22;90.84
37066;BME280;22981;43.080;25.550;2022-12-07T05:04:16;99612.74;;;5.25;90.81
37066;BME280;22981;43.080;25.550;2022-12-07T05:06:44;99619.89;;;5.25;90.71
37066;BME280;22981;43.080;25.550;2022-12-07T05:09:12;99622.58;;;5.21;90.58
37066;BME280;22981;43.080;25.550;2022-12-07T05:11:39;99623.44;;;5.17;90.57
37066;BME280;22981;43.080;25.550;2022-12-07T05:14:16;99627.14;;;5.12;90.53
37066;BME280;22981;43.080;25.550;2022-12-07T05:16:44;99623.35;;;5.11;90.61
37066;BME280;22981;43.080;25.550;2022-12-07T05:19:13;99612.42;;;5.10;90.66
37066;BME280;22981;43.080;25.550;2022-12-07T05:21:41;99601.81;;;5.10;90.72
37066;BME280;22981;43.080;25.550;2022-12-07T05:24:11;99601.42;;;5.13;90.74
37066;BME280;22981;43.080;25.550;2022-12-07T05:26:39;99602.44;;;5.12;90.66
37066;BME280;22981;43.080;25.550;2022-12-07T05:29:07;99606.61;;;5.10;90.57
37066;BME280;22981;43.080;25.550;2022-12-07T05:31:34;99605.83;;;5.06;90.66
37066;BME280;22981;43.080;25.550;2022-12-07T05:34:02;99607.16;;;5.06;90.74
37066;BME280;22981;43.080;25.550;2022-12-07T05:36:29;99605.67;;;5.03;90.73
37066;BME280;22981;43.080;25.550;2022-12-07T05:38:58;99606.84;;;5.00;90.71
37066;BME280;22981;43.080;25.550;2022-12-07T05:41:26;99607.23;;;4.97;90.67
37066;BME280;22981;43.080;25.550;2022-12-07T05:44:11;99577.09;;;4.75;90.67
37066;BME280;22981;43.080;25.550;2022-12-07T05:46:38;99609.76;;;4.91;90.64
37066;BME280;22981;43.080;25.550;2022-12-07T05:49:06;99614.94;;;4.88;90.66
37066;BME280;22981;43.080;25.550;2022-12-07T05:51:34;99612.95;;;4.86;90.63
37066;BME280;22981;43.080;25.550;2022-12-07T05:54:01;99613.65;;;4.84;90.61
37066;BME280;22981;43.080;25.550;2022-12-07T05:56:29;99612.80;;;4.84;90.59
37066;BME280;22981;43.080;25.550;2022-12-07T05:58:56;99610.91;;;4.73;90.54
37066;BME280;22981;43.080;25.550;2022-12-07T06:01:42;99629.59;;;4.80;90.53
37066;BME280;22981;43.080;25.550;2022-12-07T06:04:10;99623.62;;;4.78;90.41
37066;BME280;22981;43.080;25.550;2022-12-07T06:06:37;99625.97;;;4.77;90.40
37066;BME280;22981;43.080;25.550;2022-12-07T06:09:05;99623.97;;;4.75;90.38
37066;BME280;22981;43.080;25.550;2022-12-07T06:11:33;99627.64;;;4.74;90.37
37066;BME280;22981;43.080;25.550;2022-12-07T06:14:19;99632.63;;;4.73;90.32
37066;BME280;22981;43.080;25.550;2022-12-07T06:16:47;99632.94;;;4.74;90.25
37066;BME280;22981;43.080;25.550;2022-12-07T06:19:14;99632.12;;;4.73;90.17
37066;BME280;22981;43.080;25.550;2022-12-07T06:21:42;99623.50;;;4.75;90.13
37066;BME280;22981;43.080;25.550;2022-12-07T06:24:11;99630.26;;;4.78;90.10
37066;BME280;22981;43.080;25.550;2022-12-07T06:26:40;99626.28;;;4.78;90.08
37066;BME280;22981;43.080;25.550;2022-12-07T06:29:09;99629.41;;;4.82;90.04
37066;BME280;22981;43.080;25.550;2022-12-07T06:31:37;99632.19;;;4.88;89.98
37066;BME280;22981;43.080;25.550;2022-12-07T06:34:09;99626.47;;;4.95;89.83
37066;BME280;22981;43.080;25.550;2022-12-07T06:36:36;99631.55;;;5.01;89.66
37066;BME280;22981;43.080;25.550;2022-12-07T06:39:04;99633.88;;;5.00;89.42
37066;BME280;22981;43.080;25.550;2022-12-07T06:41:32;99634.27;;;4.97;89.38
37066;BME280;22981;43.080;25.550;2022-12-07T06:44:00;99630.91;;;4.99;89.52
37066;BME280;22981;43.080;25.550;2022-12-07T06:46:27;99629.36;;;5.05;89.54
37066;BME280;22981;43.080;25.550;2022-12-07T06:48:55;99624.17;;;5.11;89.47
37066;BME280;22981;43.080;25.550;2022-12-07T06:51:22;99616.17;;;5.15;89.36
37066;BME280;22981;43.080;25.550;2022-12-07T06:53:50;99615.31;;;5.19;89.25
37066;BME280;22981;43.080;25.550;2022-12-07T06:56:18;99614.62;;;5.21;89.11
37066;BME280;22981;43.080;25.550;2022-12-07T06:58:45;99615.71;;;5.26;89.08
37066;BME280;22981;43.080;25.550;2022-12-07T07:01:15;99618.17;;;5.32;89.03
37066;BME280;22981;43.080;25.550;2022-12-07T07:03:43;99621.09;;;5.37;88.97
37066;BME280;22981;43.080;25.550;2022-12-07T07:06:12;99632.18;;;5.41;88.84
37066;BME280;22981;43.080;25.550;2022-12-07T07:08:40;99632.49;;;5.42;88.79
37066;BME280;22981;43.080;25.550;2022-12-07T07:11:08;99640.77;;;5.43;88.76
37066;BME280;22981;43.080;25.550;2022-12-07T07:13:37;99640.27;;;5.43;88.77
37066;BME280;22981;43.080;25.550;2022-12-07T07:16:05;99640.61;;;5.44;88.82
37066;BME280;22981;43.080;25.550;2022-12-07T07:18:32;99630.93;;;5.47;88.84
37066;BME280;22981;43.080;25.550;2022-12-07T07:21:01;99633.50;;;5.56;88.81
37066;BME280;22981;43.080;25.550;2022-12-07T07:23:28;99642.70;;;5.64;88.68
37066;BME280;22981;43.080;25.550;2022-12-07T07:25:56;99646.80;;;5.70;88.53
37066;BME280;22981;43.080;25.550;2022-12-07T07:28:24;99646.91;;;5.73;88.41
37066;BME280;22981;43.080;25.550;2022-12-07T07:30:51;99643.59;;;5.75;88.33
37066;BME280;22981;43.080;25.550;2022-12-07T07:33:19;99641.39;;;5.78;88.26
37066;BME280;22981;43.080;25.550;2022-12-07T07:35:46;99637.67;;;5.84;88.13
37066;BME280;22981;43.080;25.550;2022-12-07T07:38:14;99652.28;;;5.84;87.93
37066;BME280;22981;43.080;25.550;2022-12-07T07:40:42;99652.64;;;5.81;87.76
37066;BME280;22981;43.080;25.550;2022-12-07T07:43:09;99652.14;;;5.81;87.78
37066;BME280;22981;43.080;25.550;2022-12-07T07:45:37;99648.47;;;5.82;87.81
37066;BME280;22981;43.080;25.550;2022-12-07T07:48:04;99651.52;;;5.79;87.67
37066;BME280;22981;43.080;25.550;2022-12-07T07:50:32;99646.24;;;5.75;87.84
37066;BME280;22981;43.080;25.550;2022-12-07T07:53:00;99642.11;;;5.72;87.85
37066;BME280;22981;43.080;25.550;2022-12-07T07:55:27;99586.27;;;5.36;87.86
37066;BME280;22981;43.080;25.550;2022-12-07T07:57:55;99638.17;;;5.68;87.96
37066;BME280;22981;43.080;25.550;2022-12-07T08:00:22;99640.16;;;5.70;87.98
37066;BME280;22981;43.080;25.550;2022-12-07T08:02:50;99632.50;;;5.71;87.93
37066;BME280;22981;43.080;25.550;2022-12-07T08:05:18;99639.60;;;5.75;87.86
37066;BME280;22981;43.080;25.550;2022-12-07T08:07:45;99638.27;;;5.75;87.47
37066;BME280;22981;43.080;25.550;2022-12-07T08:10:14;99645.33;;;5.83;87.51
37066;BME280;22981;43.080;25.550;2022-12-07T08:12:43;99639.00;;;5.98;87.36
37066;BME280;22981;43.080;25.550;2022-12-07T08:15:30;99635.46;;;6.17;87.16
37066;BME280;22981;43.080;25.550;2022-12-07T08:17:58;99637.02;;;6.47;86.65
37066;BME280;22981;43.080;25.550;2022-12-07T08:20:26;99635.82;;;6.61;86.05
37066;BME280;22981;43.080;25.550;2022-12-07T08:22:53;99627.20;;;6.69;85.58
37066;BME280;22981;43.080;25.550;2022-12-07T08:25:21;99627.19;;;6.80;85.20
37066;BME280;22981;43.080;25.550;2022-12-07T08:27:49;99630.98;;;7.03;85.05
37066;BME280;22981;43.080;25.550;2022-12-07T08:30:17;99634.39;;;7.36;84.33
37066;BME280;22981;43.080;25.550;2022-12-07T08:32:46;99627.81;;;7.49;83.38
37066;BME280;22981;43.080;25.550;2022-12-07T08:35:14;99628.37;;;7.55;82.99
37066;BME280;22981;43.080;25.550;2022-12-07T08:37:43;99627.27;;;7.43;82.71
37066;BME280;22981;43.080;25.550;2022-12-07T08:40:11;99575.02;;;7.07;82.92
37066;BME280;22981;43.080;25.550;2022-12-07T08:42:47;99629.12;;;7.42;82.93
37066;BME280;22981;43.080;25.550;2022-12-07T08:45:15;99616.02;;;7.65;82.84
37066;BME280;22981;43.080;25.550;2022-12-07T08:48:00;99616.49;;;7.99;82.39
37066;BME280;22981;43.080;25.550;2022-12-07T08:50:30;99613.67;;;8.38;81.74
37066;BME280;22981;43.080;25.550;2022-12-07T08:53:01;99608.28;;;8.68;80.92
37066;BME280;22981;43.080;25.550;2022-12-07T08:55:34;99604.72;;;8.92;79.73
37066;BME280;22981;43.080;25.550;2022-12-07T08:58:08;99599.56;;;8.90;79.02
37066;BME280;22981;43.080;25.550;2022-12-07T09:00:40;99601.94;;;8.69;78.91
37066;BME280;22981;43.080;25.550;2022-12-07T09:03:12;99599.96;;;8.54;79.19
37066;BME280;22981;43.080;25.550;2022-12-07T09:05:48;99594.94;;;8.48;79.47
37066;BME280;22981;43.080;25.550;2022-12-07T09:08:18;99592.36;;;8.44;79.49
37066;BME280;22981;43.080;25.550;2022-12-07T09:10:48;99587.81;;;8.38;79.34
37066;BME280;22981;43.080;25.550;2022-12-07T09:13:20;99586.48;;;8.38;79.53
37066;BME280;22981;43.080;25.550;2022-12-07T09:16:13;99574.48;;;8.38;79.32
37066;BME280;22981;43.080;25.550;2022-12-07T09:18:43;99574.08;;;8.41;79.20
37066;BME280;22981;43.080;25.550;2022-12-07T09:21:27;99564.45;;;8.53;79.20
37066;BME280;22981;43.080;25.550;2022-12-07T09:53:13;99528.69;;;9.21;75.00
37066;BME280;22981;43.080;25.550;2022-12-07T09:55:40;99523.75;;;9.11;76.01
37066;BME280;22981;43.080;25.550;2022-12-07T09:58:28;99514.95;;;9.04;76.56
37066;BME280;22981;43.080;25.550;2022-12-07T10:00:57;99506.13;;;8.97;76.93
37066;BME280;22981;43.080;25.550;2022-12-07T10:03:27;99495.00;;;9.07;77.24
37066;BME280;22981;43.080;25.550;2022-12-07T10:05:56;99500.75;;;9.17;77.06
37066;BME280;22981;43.080;25.550;2022-12-07T10:08:25;99497.27;;;9.10;76.82
37066;BME280;22981;43.080;25.550;2022-12-07T10:10:56;99497.48;;;9.01;76.89
37066;BME280;22981;43.080;25.550;2022-12-07T10:13:35;99494.22;;;8.93;77.13
37066;BME280;22981;43.080;25.550;2022-12-07T10:16:03;99495.25;;;8.92;77.48
37066;BME280;22981;43.080;25.550;2022-12-07T10:18:41;99493.08;;;8.98;77.74
37066;BME280;22981;43.080;25.550;2022-12-07T10:21:17;99491.22;;;8.98;77.77
37066;BME280;22981;43.080;25.550;2022-12-07T10:24:13;99488.55;;;9.05;77.72
37066;BME280;22981;43.080;25.550;2022-12-07T10:26:50;99484.32;;;9.13;77.62
37066;BME280;22981;43.080;25.550;2022-12-07T10:29:33;99480.50;;;9.25;77.40
37066;BME280;22981;43.080;25.550;2022-12-07T10:32:06;99478.55;;;9.45;77.18
37066;BME280;22981;43.080;25.550;2022-12-07T10:34:36;99487.70;;;9.69;76.62
37066;BME280;22981;43.080;25.550;2022-12-07T10:37:16;99480.20;;;9.85;75.92
37066;BME280;22981;43.080;25.550;2022-12-07T10:39:46;99481.13;;;9.88;75.82
37066;BME280;22981;43.080;25.550;2022-12-07T10:45:12;99468.81;;;9.80;76.06
37066;BME280;22981;43.080;25.550;2022-12-07T10:50:59;99465.28;;;9.70;76.25
37066;BME280;22981;43.080;25.550;2022-12-07T10:56:11;99461.91;;;9.66;76.54
37066;BME280;22981;43.080;25.550;2022-12-07T10:59:07;99452.26;;;9.65;76.73
37066;BME280;22981;43.080;25.550;2022-12-07T11:07:14;99445.50;;;9.78;76.96
37066;BME280;22981;43.080;25.550;2022-12-07T11:12:51;99434.67;;;9.82;76.82
37066;BME280;22981;43.080;25.550;2022-12-07T11:15:29;99426.09;;;9.73;76.75
37066;BME280;22981;43.080;25.550;2022-12-07T11:24:01;99427.28;;;9.62;77.00
37066;BME280;22981;43.080;25.550;2022-12-07T11:26:39;99425.47;;;9.71;77.00
37066;BME280;22981;43.080;25.550;2022-12-07T11:32:00;99419.75;;;9.99;76.80
37066;BME280;22981;43.080;25.550;2022-12-07T11:34:36;99412.77;;;10.39;76.20
37066;BME280;22981;43.080;25.550;2022-12-07T11:37:02;99410.59;;;10.82;75.51
37066;BME280;22981;43.080;25.550;2022-12-07T11:39:37;99397.50;;;11.20;74.72
37066;BME280;22981;43.080;25.550;2022-12-07T11:42:09;99394.16;;;11.54;73.63
37066;BME280;22981;43.080;25.550;2022-12-07T11:47:27;99395.99;;;11.93;71.23
37066;BME280;22981;43.080;25.550;2022-12-07T11:50:17;99385.28;;;12.05;70.97
37066;BME280;22981;43.080;25.550;2022-12-07T11:52:52;99386.00;;;12.24;70.08
37066;BME280;22981;43.080;25.550;2022-12-07T11:55:40;99375.20;;;12.33;69.79
37066;BME280;22981;43.080;25.550;2022-12-07T11:58:11;99374.05;;;12.52;69.43
37066;BME280;22981;43.080;25.550;2022-12-07T12:00:32;99373.98;;;12.62;68.40
37066;BME280;22981;43.080;25.550;2022-12-07T12:03:15;99361.47;;;12.67;66.79
37066;BME280;22981;43.080;25.550;2022-12-07T12:05:39;99359.38;;;12.69;67.24
37066;BME280;22981;43.080;25.550;2022-12-07T12:08:16;99361.16;;;12.90;66.90
37066;BME280;22981;43.080;25.550;2022-12-07T12:14:00;99355.36;;;13.10;66.10
37066;BME280;22981;43.080;25.550;2022-12-07T12:22:20;99341.73;;;13.54;65.20
37066;BME280;22981;43.080;25.550;2022-12-07T12:24:51;99333.69;;;13.71;65.02
37066;BME280;22981;43.080;25.550;2022-12-07T12:27:28;99319.72;;;13.88;64.70
37066;BME280;22981;43.080;25.550;2022-12-07T12:29:59;99320.73;;;14.01;64.31
37066;BME280;22981;43.080;25.550;2022-12-07T12:32:40;99316.70;;;14.21;63.67
37066;BME280;22981;43.080;25.550;2022-12-07T12:35:30;99312.89;;;14.36;63.23
37066;BME280;22981;43.080;25.550;2022-12-07T12:40:45;99310.41;;;14.32;62.43
37066;BME280;22981;43.080;25.550;2022-12-07T12:43:46;99315.44;;;14.45;62.20
37066;BME280;22981;43.080;25.550;2022-12-07T12:51:51;99307.34;;;14.07;62.20
37066;BME280;22981;43.080;25.550;2022-12-07T12:54:22;99303.52;;;13.86;62.03
37066;BME280;22981;43.080;25.550;2022-12-07T12:57:24;99303.34;;;13.59;62.50
37066;BME280;22981;43.080;25.550;2022-12-07T13:02:48;99306.98;;;12.95;64.12
37066;BME280;22981;43.080;25.550;2022-12-07T13:05:30;99307.95;;;12.89;64.61
37066;BME280;22981;43.080;25.550;2022-12-07T13:08:14;99310.32;;;12.74;64.66
37066;BME280;22981;43.080;25.550;2022-12-07T13:26:39;99310.81;;;12.21;66.20
37066;BME280;22981;43.080;25.550;2022-12-07T13:29:19;99306.20;;;12.08;66.42
37066;BME280;22981;43.080;25.550;2022-12-07T13:31:56;99309.61;;;11.94;66.85
37066;BME280;22981;43.080;25.550;2022-12-07T14:28:52;99300.09;;;10.22;73.59
37066;BME280;22981;43.080;25.550;2022-12-07T14:31:23;99303.96;;;10.17;73.78
37066;BME280;22981;43.080;25.550;2022-12-07T14:34:00;99309.98;;;10.13;74.02
37066;BME280;22981;43.080;25.550;2022-12-07T14:36:31;99307.06;;;10.05;74.26
37066;BME280;22981;43.080;25.550;2022-12-07T14:39:01;99300.45;;;9.98;74.50
37066;BME280;22981;43.080;25.550;2022-12-07T14:41:33;99302.13;;;9.93;74.70
37066;BME280;22981;43.080;25.550;2022-12-07T14:44:22;99290.98;;;9.87;74.82
37066;BME280;22981;43.080;25.550;2022-12-07T14:46:51;99295.84;;;9.81;74.94
37066;BME280;22981;43.080;25.550;2022-12-07T14:49:19;99294.29;;;9.73;75.10
37066;BME280;22981;43.080;25.550;2022-12-07T14:51:48;99292.17;;;9.66;75.33
37066;BME280;22981;43.080;25.550;2022-12-07T14:54:20;99293.55;;;9.59;75.65
37066;BME280;22981;43.080;25.550;2022-12-07T14:56:48;99293.91;;;9.53;75.85
37066;BME280;22981;43.080;25.550;2022-12-07T14:59:18;99297.98;;;9.47;75.99
37066;BME280;22981;43.080;25.550;2022-12-07T15:01:48;99295.05;;;9.39;76.15
37066;BME280;22981;43.080;25.550;2022-12-07T15:07:19;99303.28;;;9.22;76.60
37066;BME280;22981;43.080;25.550;2022-12-07T15:09:49;99300.56;;;9.13;76.73
37066;BME280;22981;43.080;25.550;2022-12-07T15:12:23;99302.95;;;9.05;76.86
37066;BME280;22981;43.080;25.550;2022-12-07T15:15:09;99305.13;;;8.99;77.00
37066;BME280;22981;43.080;25.550;2022-12-07T15:22:48;99312.80;;;8.82;77.35
37066;BME280;22981;43.080;25.550;2022-12-07T16:24:49;99310.72;;;7.33;79.59
37066;BME280;22981;43.080;25.550;2022-12-07T18:15:38;99364.58;;;5.90;81.28
37066;BME280;22981;43.080;25.550;2022-12-07T18:18:10;99354.28;;;5.80;81.11
37066;BME280;22981;43.080;25.550;2022-12-07T18:20:41;99356.30;;;5.78;81.21
37066;BME280;22981;43.080;25.550;2022-12-07T18:23:16;99352.00;;;5.77;81.23
37066;BME280;22981;43.080;25.550;2022-12-07T18:25:51;99353.33;;;5.77;81.17
37066;BME280;22981;43.080;25.550;2022-12-07T18:28:21;99347.40;;;5.75;81.13
37066;BME280;22981;43.080;25.550;2022-12-07T18:30:59;99352.87;;;5.73;81.08
37066;BME280;22981;43.080;25.550;2022-12-07T18:33:28;99357.77;;;5.59;80.92
37066;BME280;22981;43.080;25.550;2022-12-07T18:36:00;99371.62;;;5.44;81.06
37066;BME280;22981;43.080;25.550;2022-12-07T18:41:05;99366.55;;;5.27;81.59
37066;BME280;22981;43.080;25.550;2022-12-07T18:43:33;99373.34;;;5.26;81.61
37066;BME280;22981;43.080;25.550;2022-12-07T18:46:08;99379.31;;;5.28;81.58
37066;BME280;22981;43.080;25.550;2022-12-07T18:48:37;99381.77;;;5.30;81.48
37066;BME280;22981;43.080;25.550;2022-12-07T18:51:07;99386.91;;;5.31;81.37
37066;BME280;22981;43.080;25.550;2022-12-07T18:53:49;99388.86;;;5.33;81.33
37066;BME280;22981;43.080;25.550;2022-12-07T18:59:06;99393.45;;;5.35;81.37
37066;BME280;22981;43.080;25.550;2022-12-07T19:01:53;99395.64;;;5.36;81.42
37066;BME280;22981;43.080;25.550;2022-12-07T19:06:52;99398.14;;;5.22;81.35
37066;BME280;22981;43.080;25.550;2022-12-07T19:09:21;99403.41;;;5.12;81.34
37066;BME280;22981;43.080;25.550;2022-12-07T19:11:50;99415.95;;;5.03;81.46
37066;BME280;22981;43.080;25.550;2022-12-07T19:14:26;99415.50;;;4.99;81.67
37066;BME280;22981;43.080;25.550;2022-12-07T19:16:57;99354.95;;;4.63;81.80